sensor_id;sensor_type;location;lat;lon;timestamp;P1;durP1;ratioP1;P2;durP2;ratioP2
42140;SDS011;27809;51.864;5.646;2022-09-13T00:00:05;9.20;;;6.53;;
42140;SDS011;27809;51.864;5.646;2022-09-13T00:02:32;12.70;;;6.32;;
42140;SDS011;27809;51.864;5.646;2022-09-13T00:04:57;11.55;;;6.60;;
42140;SDS011;27809;51.864;5.646;2022-09-13T00:07:23;9.75;;;6.32;;
42140;SDS011;27809;51.864;5.646;2022-09-13T00:09:48;12.55;;;6.63;;
42140;SDS011;27809;51.864;5.646;2022-09-13T00:12:14;13.10;;;7.03;;
42140;SDS011;27809;51.864;5.646;2022-09-13T00:14:39;11.45;;;7.13;;
42140;SDS011;27809;51.864;5.646;2022-09-13T00:17:06;12.27;;;6.57;;
42140;SDS011;27809;51.864;5.646;2022-09-13T00:19:31;14.05;;;7.85;;
42140;SDS011;27809;51.864;5.646;2022-09-13T00:21:57;9.68;;;6.43;;
42140;SDS011;27809;51.864;5.646;2022-09-13T00:24:23;11.85;;;7.80;;
42140;SDS011;27809;51.864;5.646;2022-09-13T00:26:48;11.32;;;6.35;;
42140;SDS011;27809;51.864;5.646;2022-09-13T00:29:14;8.27;;;6.93;;
42140;SDS011;27809;51.864;5.646;2022-09-13T00:31:39;13.73;;;7.32;;
42140;SDS011;27809;51.864;5.646;2022-09-13T00:34:05;9.27;;;6.57;;
42140;SDS011;27809;51.864;5.646;2022-09-13T00:36:30;9.55;;;6.30;;
42140;SDS011;27809;51.864;5.646;2022-09-13T00:38:56;12.20;;;7.13;;
42140;SDS011;27809;51.864;5.646;2022-09-13T00:41:23;8.85;;;5.82;;
42140;SDS011;27809;51.864;5.646;2022-09-13T00:43:52;10.82;;;6.35;;
42140;SDS011;27809;51.864;5.646;2022-09-13T00:46:23;9.07;;;6.22;;
42140;SDS011;27809;51.864;5.646;2022-09-13T00:51:36;9.20;;;6.32;;
42140;SDS011;27809;51.864;5.646;2022-09-13T00:54:03;13.45;;;7.38;;
42140;SDS011;27809;51.864;5.646;2022-09-13T00:56:31;9.13;;;6.32;;
42140;SDS011;27809;51.864;5.646;2022-09-13T00:59:07;8.65;;;6.20;;
42140;SDS011;27809;51.864;5.646;2022-09-13T01:01:41;9.68;;;7.28;;
42140;SDS011;27809;51.864;5.646;2022-09-13T01:04:11;9.98;;;6.85;;
42140;SDS011;27809;51.864;5.646;2022-09-13T01:06:37;12.38;;;7.38;;
42140;SDS011;27809;51.864;5.646;2022-09-13T01:09:05;11.18;;;6.32;;
42140;SDS011;27809;51.864;5.646;2022-09-13T01:11:34;12.68;;;7.72;;
42140;SDS011;27809;51.864;5.646;2022-09-13T01:14:11;15.88;;;8.32;;
42140;SDS011;27809;51.864;5.646;2022-09-13T01:16:37;12.00;;;7.90;;
42140;SDS011;27809;51.864;5.646;2022-09-13T01:19:03;11.02;;;7.82;;
42140;SDS011;27809;51.864;5.646;2022-09-13T01:27:27;15.75;;;7.95;;
42140;SDS011;27809;51.864;5.646;2022-09-13T01:30:18;11.55;;;7.55;;
42140;SDS011;27809;51.864;5.646;2022-09-13T01:51:59;13.40;;;7.90;;
42140;SDS011;27809;51.864;5.646;2022-09-13T01:57:15;9.90;;;7.22;;
42140;SDS011;27809;51.864;5.646;2022-09-13T01:59:47;12.10;;;6.80;;
42140;SDS011;27809;51.864;5.646;2022-09-13T02:02:22;12.87;;;6.83;;
42140;SDS011;27809;51.864;5.646;2022-09-13T02:05:10;11.45;;;6.28;;
42140;SDS011;27809;51.864;5.646;2022-09-13T02:07:39;10.35;;;6.40;;
42140;SDS011;27809;51.864;5.646;2022-09-13T02:10:08;13.35;;;8.15;;
42140;SDS011;27809;51.864;5.646;2022-09-13T02:12:41;10.13;;;7.30;;
42140;SDS011;27809;51.864;5.646;2022-09-13T02:15:11;13.85;;;6.35;;
42140;SDS011;27809;51.864;5.646;2022-09-13T02:17:42;10.70;;;6.97;;
42140;SDS011;27809;51.864;5.646;2022-09-13T02:20:16;9.50;;;6.65;;
42140;SDS011;27809;51.864;5.646;2022-09-13T02:22:48;11.90;;;7.75;;
42140;SDS011;27809;51.864;5.646;2022-09-13T02:25:21;11.95;;;7.65;;
42140;SDS011;27809;51.864;5.646;2022-09-13T02:27:50;15.68;;;8.13;;
42140;SDS011;27809;51.864;5.646;2022-09-13T02:30:22;17.02;;;7.70;;
42140;SDS011;27809;51.864;5.646;2022-09-13T02:32:59;11.45;;;7.70;;
42140;SDS011;27809;51.864;5.646;2022-09-13T02:35:33;9.95;;;7.72;;
42140;SDS011;27809;51.864;5.646;2022-09-13T02:38:09;11.32;;;7.47;;
42140;SDS011;27809;51.864;5.646;2022-09-13T02:40:41;11.35;;;7.18;;
42140;SDS011;27809;51.864;5.646;2022-09-13T02:43:24;8.43;;;6.05;;
42140;SDS011;27809;51.864;5.646;2022-09-13T02:45:59;10.90;;;7.45;;
42140;SDS011;27809;51.864;5.646;2022-09-13T02:48:53;11.15;;;7.68;;
42140;SDS011;27809;51.864;5.646;2022-09-13T02:54:14;19.15;;;6.70;;
42140;SDS011;27809;51.864;5.646;2022-09-13T02:57:13;13.68;;;7.25;;
42140;SDS011;27809;51.864;5.646;2022-09-13T02:59:44;10.68;;;7.60;;
42140;SDS011;27809;51.864;5.646;2022-09-13T03:02:12;11.85;;;6.85;;
42140;SDS011;27809;51.864;5.646;2022-09-13T03:04:40;9.68;;;7.20;;
42140;SDS011;27809;51.864;5.646;2022-09-13T03:07:10;12.85;;;6.18;;
42140;SDS011;27809;51.864;5.646;2022-09-13T03:09:36;10.23;;;6.70;;
42140;SDS011;27809;51.864;5.646;2022-09-13T03:17:54;11.85;;;6.97;;
42140;SDS011;27809;51.864;5.646;2022-09-13T03:28:23;14.43;;;6.88;;
42140;SDS011;27809;51.864;5.646;2022-09-13T03:34:38;10.23;;;6.83;;
42140;SDS011;27809;51.864;5.646;2022-09-13T03:40:08;12.88;;;7.85;;
42140;SDS011;27809;51.864;5.646;2022-09-13T03:43:02;8.65;;;5.78;;
42140;SDS011;27809;51.864;5.646;2022-09-13T03:45:26;14.23;;;7.82;;
42140;SDS011;27809;51.864;5.646;2022-09-13T03:47:54;15.63;;;7.00;;
42140;SDS011;27809;51.864;5.646;2022-09-13T03:50:21;8.80;;;5.97;;
42140;SDS011;27809;51.864;5.646;2022-09-13T03:52:57;14.48;;;7.57;;
42140;SDS011;27809;51.864;5.646;2022-09-13T03:55:27;10.82;;;7.75;;
42140;SDS011;27809;51.864;5.646;2022-09-13T03:57:55;11.55;;;8.57;;
42140;SDS011;27809;51.864;5.646;2022-09-13T04:00:21;13.93;;;7.72;;
42140;SDS011;27809;51.864;5.646;2022-09-13T04:02:46;18.90;;;8.07;;
42140;SDS011;27809;51.864;5.646;2022-09-13T04:05:12;11.02;;;7.32;;
42140;SDS011;27809;51.864;5.646;2022-09-13T04:07:37;12.40;;;8.05;;
42140;SDS011;27809;51.864;5.646;2022-09-13T04:10:03;10.18;;;6.90;;
42140;SDS011;27809;51.864;5.646;2022-09-13T04:12:29;8.93;;;7.22;;
42140;SDS011;27809;51.864;5.646;2022-09-13T04:14:55;11.55;;;6.20;;
42140;SDS011;27809;51.864;5.646;2022-09-13T04:17:20;8.77;;;6.88;;
42140;SDS011;27809;51.864;5.646;2022-09-13T04:19:46;10.32;;;7.35;;
42140;SDS011;27809;51.864;5.646;2022-09-13T04:22:12;8.75;;;6.20;;
42140;SDS011;27809;51.864;5.646;2022-09-13T04:24:38;13.10;;;8.40;;
42140;SDS011;27809;51.864;5.646;2022-09-13T04:27:04;13.88;;;8.40;;
42140;SDS011;27809;51.864;5.646;2022-09-13T04:29:29;10.50;;;8.05;;
42140;SDS011;27809;51.864;5.646;2022-09-13T04:31:57;9.93;;;7.40;;
42140;SDS011;27809;51.864;5.646;2022-09-13T04:34:22;11.65;;;7.07;;
42140;SDS011;27809;51.864;5.646;2022-09-13T04:36:49;13.07;;;7.85;;
42140;SDS011;27809;51.864;5.646;2022-09-13T04:39:16;11.57;;;7.45;;
42140;SDS011;27809;51.864;5.646;2022-09-13T04:41:43;11.68;;;6.57;;
42140;SDS011;27809;51.864;5.646;2022-09-13T04:44:11;10.73;;;7.97;;
42140;SDS011;27809;51.864;5.646;2022-09-13T04:46:36;12.20;;;8.30;;
42140;SDS011;27809;51.864;5.646;2022-09-13T04:49:02;11.52;;;6.97;;
42140;SDS011;27809;51.864;5.646;2022-09-13T04:51:27;12.43;;;7.65;;
42140;SDS011;27809;51.864;5.646;2022-09-13T04:53:53;10.00;;;7.57;;
42140;SDS011;27809;51.864;5.646;2022-09-13T04:56:20;11.60;;;8.00;;
42140;SDS011;27809;51.864;5.646;2022-09-13T04:58:47;11.55;;;7.03;;
42140;SDS011;27809;51.864;5.646;2022-09-13T05:01:17;9.57;;;7.40;;
42140;SDS011;27809;51.864;5.646;2022-09-13T05:03:43;20.88;;;7.50;;
42140;SDS011;27809;51.864;5.646;2022-09-13T05:06:10;11.23;;;7.63;;
42140;SDS011;27809;51.864;5.646;2022-09-13T05:08:38;23.00;;;9.65;;
42140;SDS011;27809;51.864;5.646;2022-09-13T05:11:04;14.70;;;7.88;;
42140;SDS011;27809;51.864;5.646;2022-09-13T05:13:31;14.73;;;7.82;;
42140;SDS011;27809;51.864;5.646;2022-09-13T05:15:58;15.35;;;7.72;;
42140;SDS011;27809;51.864;5.646;2022-09-13T05:18:25;11.75;;;7.60;;
42140;SDS011;27809;51.864;5.646;2022-09-13T05:20:55;14.27;;;9.38;;
42140;SDS011;27809;51.864;5.646;2022-09-13T05:23:24;13.93;;;9.65;;
42140;SDS011;27809;51.864;5.646;2022-09-13T05:25:52;15.95;;;8.55;;
42140;SDS011;27809;51.864;5.646;2022-09-13T05:28:18;12.02;;;7.57;;
42140;SDS011;27809;51.864;5.646;2022-09-13T05:30:52;14.32;;;8.65;;
42140;SDS011;27809;51.864;5.646;2022-09-13T05:33:18;14.32;;;8.15;;
42140;SDS011;27809;51.864;5.646;2022-09-13T05:35:44;18.38;;;8.63;;
42140;SDS011;27809;51.864;5.646;2022-09-13T05:38:09;18.80;;;8.48;;
42140;SDS011;27809;51.864;5.646;2022-09-13T05:40:35;16.13;;;7.85;;
42140;SDS011;27809;51.864;5.646;2022-09-13T05:43:01;14.05;;;8.35;;
42140;SDS011;27809;51.864;5.646;2022-09-13T05:45:26;15.32;;;8.93;;
42140;SDS011;27809;51.864;5.646;2022-09-13T05:47:51;11.77;;;8.13;;
42140;SDS011;27809;51.864;5.646;2022-09-13T05:50:17;10.80;;;7.80;;
42140;SDS011;27809;51.864;5.646;2022-09-13T05:52:42;14.93;;;9.10;;
42140;SDS011;27809;51.864;5.646;2022-09-13T05:55:08;12.45;;;8.23;;
42140;SDS011;27809;51.864;5.646;2022-09-13T05:57:35;16.65;;;8.88;;
42140;SDS011;27809;51.864;5.646;2022-09-13T06:00:01;12.20;;;8.70;;
42140;SDS011;27809;51.864;5.646;2022-09-13T06:02:29;11.60;;;8.73;;
42140;SDS011;27809;51.864;5.646;2022-09-13T06:04:55;13.43;;;8.63;;
42140;SDS011;27809;51.864;5.646;2022-09-13T06:07:20;17.13;;;9.38;;
42140;SDS011;27809;51.864;5.646;2022-09-13T06:09:46;8.68;;;4.72;;
42140;SDS011;27809;51.864;5.646;2022-09-13T06:12:11;17.65;;;8.77;;
42140;SDS011;27809;51.864;5.646;2022-09-13T06:14:37;11.80;;;9.35;;
42140;SDS011;27809;51.864;5.646;2022-09-13T06:17:02;14.40;;;8.02;;
42140;SDS011;27809;51.864;5.646;2022-09-13T06:19:28;20.25;;;9.07;;
42140;SDS011;27809;51.864;5.646;2022-09-13T06:21:53;17.20;;;9.30;;
42140;SDS011;27809;51.864;5.646;2022-09-13T06:24:19;13.93;;;9.25;;
42140;SDS011;27809;51.864;5.646;2022-09-13T06:26:44;17.20;;;9.65;;
42140;SDS011;27809;51.864;5.646;2022-09-13T06:29:10;14.82;;;10.20;;
42140;SDS011;27809;51.864;5.646;2022-09-13T06:31:36;10.73;;;8.48;;
42140;SDS011;27809;51.864;5.646;2022-09-13T06:34:09;12.15;;;8.77;;
42140;SDS011;27809;51.864;5.646;2022-09-13T06:39:06;11.77;;;8.45;;
42140;SDS011;27809;51.864;5.646;2022-09-13T06:41:31;14.15;;;10.55;;
42140;SDS011;27809;51.864;5.646;2022-09-13T06:43:58;15.80;;;10.23;;
42140;SDS011;27809;51.864;5.646;2022-09-13T06:46:25;13.82;;;9.45;;
42140;SDS011;27809;51.864;5.646;2022-09-13T06:48:53;13.57;;;9.32;;
42140;SDS011;27809;51.864;5.646;2022-09-13T06:51:22;10.40;;;8.02;;
42140;SDS011;27809;51.864;5.646;2022-09-13T06:53:49;13.70;;;9.90;;
42140;SDS011;27809;51.864;5.646;2022-09-13T06:56:17;15.20;;;8.60;;
42140;SDS011;27809;51.864;5.646;2022-09-13T06:58:45;14.88;;;10.02;;
42140;SDS011;27809;51.864;5.646;2022-09-13T07:03:42;16.45;;;10.25;;
42140;SDS011;27809;51.864;5.646;2022-09-13T07:06:10;18.63;;;10.68;;
42140;SDS011;27809;51.864;5.646;2022-09-13T07:08:57;18.30;;;11.93;;
42140;SDS011;27809;51.864;5.646;2022-09-13T07:11:25;21.40;;;11.63;;
42140;SDS011;27809;51.864;5.646;2022-09-13T07:13:56;19.85;;;11.10;;
42140;SDS011;27809;51.864;5.646;2022-09-13T07:16:23;16.38;;;11.18;;
42140;SDS011;27809;51.864;5.646;2022-09-13T07:18:51;26.13;;;15.07;;
42140;SDS011;27809;51.864;5.646;2022-09-13T07:21:18;20.65;;;13.60;;
42140;SDS011;27809;51.864;5.646;2022-09-13T07:23:44;21.40;;;13.00;;
42140;SDS011;27809;51.864;5.646;2022-09-13T07:26:10;16.25;;;12.15;;
42140;SDS011;27809;51.864;5.646;2022-09-13T07:28:36;25.20;;;14.50;;
42140;SDS011;27809;51.864;5.646;2022-09-13T07:31:14;20.70;;;12.55;;
42140;SDS011;27809;51.864;5.646;2022-09-13T07:33:42;13.52;;;9.90;;
42140;SDS011;27809;51.864;5.646;2022-09-13T07:36:08;21.33;;;13.02;;
42140;SDS011;27809;51.864;5.646;2022-09-13T07:38:36;21.98;;;11.68;;
42140;SDS011;27809;51.864;5.646;2022-09-13T07:41:03;32.00;;;14.85;;
42140;SDS011;27809;51.864;5.646;2022-09-13T07:43:30;21.50;;;14.07;;
42140;SDS011;27809;51.864;5.646;2022-09-13T07:45:58;25.42;;;13.70;;
42140;SDS011;27809;51.864;5.646;2022-09-13T07:48:26;22.98;;;14.23;;
42140;SDS011;27809;51.864;5.646;2022-09-13T07:51:11;25.13;;;14.25;;
42140;SDS011;27809;51.864;5.646;2022-09-13T07:53:39;24.05;;;14.48;;
42140;SDS011;27809;51.864;5.646;2022-09-13T07:56:10;28.90;;;15.02;;
42140;SDS011;27809;51.864;5.646;2022-09-13T07:58:38;28.25;;;15.00;;
42140;SDS011;27809;51.864;5.646;2022-09-13T08:01:18;20.25;;;13.18;;
42140;SDS011;27809;51.864;5.646;2022-09-13T08:03:52;23.02;;;12.32;;
42140;SDS011;27809;51.864;5.646;2022-09-13T08:06:22;17.73;;;12.23;;
42140;SDS011;27809;51.864;5.646;2022-09-13T08:08:48;20.77;;;11.13;;
42140;SDS011;27809;51.864;5.646;2022-09-13T08:11:18;13.63;;;10.20;;
42140;SDS011;27809;51.864;5.646;2022-09-13T08:13:46;6.77;;;3.13;;
42140;SDS011;27809;51.864;5.646;2022-09-13T08:16:12;7.00;;;3.38;;
42140;SDS011;27809;51.864;5.646;2022-09-13T08:18:42;19.00;;;8.85;;
42140;SDS011;27809;51.864;5.646;2022-09-13T08:21:09;14.93;;;8.93;;
42140;SDS011;27809;51.864;5.646;2022-09-13T08:23:34;12.23;;;8.80;;
42140;SDS011;27809;51.864;5.646;2022-09-13T08:26:00;6.80;;;3.08;;
42140;SDS011;27809;51.864;5.646;2022-09-13T08:28:27;10.30;;;5.30;;
42140;SDS011;27809;51.864;5.646;2022-09-13T08:30:53;9.27;;;5.78;;
42140;SDS011;27809;51.864;5.646;2022-09-13T08:33:19;10.50;;;3.08;;
42140;SDS011;27809;51.864;5.646;2022-09-13T08:35:51;9.95;;;6.28;;
42140;SDS011;27809;51.864;5.646;2022-09-13T08:38:17;9.35;;;5.53;;
42140;SDS011;27809;51.864;5.646;2022-09-13T08:40:54;9.90;;;6.68;;
42140;SDS011;27809;51.864;5.646;2022-09-13T08:44:01;8.90;;;5.97;;
42140;SDS011;27809;51.864;5.646;2022-09-13T08:47:13;11.45;;;5.03;;
42140;SDS011;27809;51.864;5.646;2022-09-13T08:49:17;7.03;;;5.30;;
42140;SDS011;27809;51.864;5.646;2022-09-13T08:51:53;9.38;;;5.47;;
42140;SDS011;27809;51.864;5.646;2022-09-13T08:54:23;10.00;;;6.32;;
42140;SDS011;27809;51.864;5.646;2022-09-13T08:56:57;6.97;;;4.45;;
42140;SDS011;27809;51.864;5.646;2022-09-13T08:59:42;10.23;;;5.70;;
42140;SDS011;27809;51.864;5.646;2022-09-13T09:02:28;8.02;;;4.15;;
42140;SDS011;27809;51.864;5.646;2022-09-13T09:05:02;8.95;;;4.68;;
42140;SDS011;27809;51.864;5.646;2022-09-13T09:07:41;9.32;;;5.18;;
42140;SDS011;27809;51.864;5.646;2022-09-13T09:10:19;8.63;;;4.65;;
42140;SDS011;27809;51.864;5.646;2022-09-13T09:12:49;8.90;;;5.03;;
42140;SDS011;27809;51.864;5.646;2022-09-13T09:15:32;7.93;;;2.80;;
42140;SDS011;27809;51.864;5.646;2022-09-13T09:18:12;7.35;;;1.88;;
42140;SDS011;27809;51.864;5.646;2022-09-13T09:20:47;8.30;;;3.38;;
42140;SDS011;27809;51.864;5.646;2022-09-13T09:25:44;10.05;;;2.20;;
42140;SDS011;27809;51.864;5.646;2022-09-13T09:28:14;6.30;;;2.72;;
42140;SDS011;27809;51.864;5.646;2022-09-13T09:30:58;8.23;;;4.30;;
42140;SDS011;27809;51.864;5.646;2022-09-13T09:39:11;4.28;;;2.85;;
42140;SDS011;27809;51.864;5.646;2022-09-13T09:41:40;5.85;;;4.10;;
42140;SDS011;27809;51.864;5.646;2022-09-13T09:46:51;8.98;;;5.75;;
42140;SDS011;27809;51.864;5.646;2022-09-13T09:49:25;7.50;;;4.82;;
42140;SDS011;27809;51.864;5.646;2022-09-13T09:52:19;8.80;;;4.38;;
42140;SDS011;27809;51.864;5.646;2022-09-13T09:54:52;2.38;;;1.10;;
42140;SDS011;27809;51.864;5.646;2022-09-13T09:57:47;3.47;;;1.25;;
42140;SDS011;27809;51.864;5.646;2022-09-13T10:00:16;3.33;;;2.22;;
42140;SDS011;27809;51.864;5.646;2022-09-13T10:02:43;3.72;;;2.20;;
42140;SDS011;27809;51.864;5.646;2022-09-13T10:05:09;3.55;;;0.95;;
42140;SDS011;27809;51.864;5.646;2022-09-13T10:07:37;5.13;;;2.22;;
42140;SDS011;27809;51.864;5.646;2022-09-13T10:10:04;5.43;;;0.75;;
42140;SDS011;27809;51.864;5.646;2022-09-13T10:12:52;1.55;;;0.80;;
42140;SDS011;27809;51.864;5.646;2022-09-13T10:15:25;1.27;;;0.82;;
42140;SDS011;27809;51.864;5.646;2022-09-13T10:18:04;5.07;;;1.10;;
42140;SDS011;27809;51.864;5.646;2022-09-13T10:20:41;4.82;;;1.83;;
42140;SDS011;27809;51.864;5.646;2022-09-13T10:23:09;4.82;;;1.55;;
42140;SDS011;27809;51.864;5.646;2022-09-13T10:25:41;6.60;;;1.35;;
42140;SDS011;27809;51.864;5.646;2022-09-13T10:28:11;3.42;;;1.95;;
42140;SDS011;27809;51.864;5.646;2022-09-13T10:30:41;4.82;;;0.98;;
42140;SDS011;27809;51.864;5.646;2022-09-13T10:33:23;5.65;;;2.28;;
42140;SDS011;27809;51.864;5.646;2022-09-13T10:36:20;6.55;;;2.50;;
42140;SDS011;27809;51.864;5.646;2022-09-13T10:38:56;2.63;;;1.65;;
42140;SDS011;27809;51.864;5.646;2022-09-13T10:41:27;3.65;;;1.15;;
42140;SDS011;27809;51.864;5.646;2022-09-13T10:43:59;3.88;;;0.88;;
42140;SDS011;27809;51.864;5.646;2022-09-13T10:46:35;5.97;;;2.80;;
42140;SDS011;27809;51.864;5.646;2022-09-13T10:49:02;2.10;;;1.20;;
42140;SDS011;27809;51.864;5.646;2022-09-13T10:51:35;2.05;;;0.90;;
42140;SDS011;27809;51.864;5.646;2022-09-13T10:54:13;5.13;;;1.63;;
42140;SDS011;27809;51.864;5.646;2022-09-13T10:56:47;3.97;;;1.02;;
42140;SDS011;27809;51.864;5.646;2022-09-13T10:59:19;2.40;;;1.10;;
42140;SDS011;27809;51.864;5.646;2022-09-13T11:04:59;1.10;;;0.73;;
42140;SDS011;27809;51.864;5.646;2022-09-13T11:10:26;2.00;;;1.00;;
42140;SDS011;27809;51.864;5.646;2022-09-13T11:15:48;1.77;;;0.75;;
42140;SDS011;27809;51.864;5.646;2022-09-13T11:26:51;3.30;;;1.15;;
42140;SDS011;27809;51.864;5.646;2022-09-13T11:29:38;1.08;;;0.70;;
42140;SDS011;27809;51.864;5.646;2022-09-13T11:38:22;3.33;;;1.27;;
42140;SDS011;27809;51.864;5.646;2022-09-13T11:41:04;1.23;;;0.50;;
42140;SDS011;27809;51.864;5.646;2022-09-13T11:43:52;0.82;;;0.55;;
42140;SDS011;27809;51.864;5.646;2022-09-13T11:48:54;0.40;;;0.20;;
42140;SDS011;27809;51.864;5.646;2022-09-13T11:51:28;0.70;;;0.40;;
42140;SDS011;27809;51.864;5.646;2022-09-13T11:54:21;1.83;;;0.30;;
42140;SDS011;27809;51.864;5.646;2022-09-13T11:57:07;2.47;;;0.63;;
42140;SDS011;27809;51.864;5.646;2022-09-13T11:59:48;0.40;;;0.30;;
42140;SDS011;27809;51.864;5.646;2022-09-13T12:04:53;1.08;;;0.40;;
42140;SDS011;27809;51.864;5.646;2022-09-13T12:07:43;1.17;;;0.60;;
42140;SDS011;27809;51.864;5.646;2022-09-13T12:10:23;2.30;;;0.57;;
42140;SDS011;27809;51.864;5.646;2022-09-13T12:13:01;4.18;;;0.70;;
42140;SDS011;27809;51.864;5.646;2022-09-13T12:15:34;1.23;;;0.30;;
42140;SDS011;27809;51.864;5.646;2022-09-13T12:18:24;2.00;;;0.35;;
42140;SDS011;27809;51.864;5.646;2022-09-13T12:20:57;1.10;;;0.50;;
42140;SDS011;27809;51.864;5.646;2022-09-13T12:23:32;1.73;;;0.40;;
42140;SDS011;27809;51.864;5.646;2022-09-13T12:26:19;0.93;;;0.50;;
42140;SDS011;27809;51.864;5.646;2022-09-13T12:28:55;1.67;;;0.25;;
42140;SDS011;27809;51.864;5.646;2022-09-13T12:31:26;1.38;;;0.35;;
42140;SDS011;27809;51.864;5.646;2022-09-13T12:33:55;0.80;;;0.30;;
42140;SDS011;27809;51.864;5.646;2022-09-13T12:36:30;1.10;;;0.40;;
42140;SDS011;27809;51.864;5.646;2022-09-13T12:41:54;1.02;;;0.20;;
42140;SDS011;27809;51.864;5.646;2022-09-13T12:47:45;3.28;;;0.52;;
42140;SDS011;27809;51.864;5.646;2022-09-13T13:03:30;1.15;;;0.30;;
42140;SDS011;27809;51.864;5.646;2022-09-13T13:09:01;3.08;;;0.30;;
42140;SDS011;27809;51.864;5.646;2022-09-13T13:11:46;3.63;;;0.60;;
42140;SDS011;27809;51.864;5.646;2022-09-13T13:14:29;2.13;;;0.40;;
42140;SDS011;27809;51.864;5.646;2022-09-13T13:23:28;0.70;;;0.20;;
42140;SDS011;27809;51.864;5.646;2022-09-13T13:46:46;6.80;;;0.50;;
42140;SDS011;27809;51.864;5.646;2022-09-13T14:00:12;4.15;;;0.50;;
42140;SDS011;27809;51.864;5.646;2022-09-13T14:13:15;1.92;;;0.75;;
42140;SDS011;27809;51.864;5.646;2022-09-13T14:19:03;3.35;;;0.20;;
42140;SDS011;27809;51.864;5.646;2022-09-13T14:21:39;0.47;;;0.30;;
42140;SDS011;27809;51.864;5.646;2022-09-13T14:26:51;2.40;;;0.20;;
42140;SDS011;27809;51.864;5.646;2022-09-13T14:29:21;3.70;;;0.20;;
42140;SDS011;27809;51.864;5.646;2022-09-13T14:31:51;3.72;;;0.65;;
42140;SDS011;27809;51.864;5.646;2022-09-13T14:34:19;1.92;;;0.30;;
42140;SDS011;27809;51.864;5.646;2022-09-13T14:36:56;2.25;;;0.22;;
42140;SDS011;27809;51.864;5.646;2022-09-13T14:39:23;1.02;;;0.30;;
42140;SDS011;27809;51.864;5.646;2022-09-13T14:41:58;9.43;;;1.17;;
42140;SDS011;27809;51.864;5.646;2022-09-13T14:44:26;3.00;;;0.30;;
42140;SDS011;27809;51.864;5.646;2022-09-13T14:46:54;2.25;;;0.40;;
42140;SDS011;27809;51.864;5.646;2022-09-13T14:49:32;4.45;;;0.20;;
42140;SDS011;27809;51.864;5.646;2022-09-13T14:52:07;2.92;;;0.50;;
42140;SDS011;27809;51.864;5.646;2022-09-13T14:54:40;2.75;;;0.20;;
42140;SDS011;27809;51.864;5.646;2022-09-13T14:57:22;1.75;;;0.45;;
42140;SDS011;27809;51.864;5.646;2022-09-13T14:59:55;0.70;;;0.28;;
42140;SDS011;27809;51.864;5.646;2022-09-13T15:02:25;1.35;;;0.52;;
42140;SDS011;27809;51.864;5.646;2022-09-13T15:04:54;1.85;;;0.85;;
42140;SDS011;27809;51.864;5.646;2022-09-13T15:07:29;3.45;;;0.63;;
42140;SDS011;27809;51.864;5.646;2022-09-13T15:09:57;1.15;;;0.30;;
42140;SDS011;27809;51.864;5.646;2022-09-13T15:12:48;1.58;;;0.30;;
42140;SDS011;27809;51.864;5.646;2022-09-13T15:15:21;3.15;;;0.75;;
42140;SDS011;27809;51.864;5.646;2022-09-13T15:23:33;1.15;;;0.30;;
42140;SDS011;27809;51.864;5.646;2022-09-13T15:26:21;1.63;;;0.20;;
42140;SDS011;27809;51.864;5.646;2022-09-13T15:28:50;0.63;;;0.30;;
42140;SDS011;27809;51.864;5.646;2022-09-13T15:31:18;10.15;;;1.33;;
42140;SDS011;27809;51.864;5.646;2022-09-13T15:33:46;3.55;;;0.50;;
42140;SDS011;27809;51.864;5.646;2022-09-13T15:36:12;3.20;;;0.38;;
42140;SDS011;27809;51.864;5.646;2022-09-13T15:38:54;2.55;;;0.30;;
42140;SDS011;27809;51.864;5.646;2022-09-13T15:41:36;1.15;;;0.30;;
42140;SDS011;27809;51.864;5.646;2022-09-13T15:44:04;1.73;;;0.77;;
42140;SDS011;27809;51.864;5.646;2022-09-13T15:46:35;2.20;;;0.20;;
42140;SDS011;27809;51.864;5.646;2022-09-13T15:49:08;5.88;;;0.82;;
42140;SDS011;27809;51.864;5.646;2022-09-13T15:51:40;1.20;;;0.20;;
42140;SDS011;27809;51.864;5.646;2022-09-13T15:54:14;2.25;;;0.30;;
42140;SDS011;27809;51.864;5.646;2022-09-13T15:56:42;4.63;;;0.63;;
42140;SDS011;27809;51.864;5.646;2022-09-13T15:59:11;5.03;;;0.82;;
42140;SDS011;27809;51.864;5.646;2022-09-13T16:01:38;10.57;;;3.45;;
42140;SDS011;27809;51.864;5.646;2022-09-13T16:04:04;4.00;;;1.45;;
42140;SDS011;27809;51.864;5.646;2022-09-13T16:06:30;5.03;;;1.05;;
42140;SDS011;27809;51.864;5.646;2022-09-13T16:08:56;2.80;;;1.25;;
42140;SDS011;27809;51.864;5.646;2022-09-13T16:11:24;2.63;;;0.47;;
42140;SDS011;27809;51.864;5.646;2022-09-13T16:13:50;4.32;;;0.90;;
42140;SDS011;27809;51.864;5.646;2022-09-13T16:16:16;1.27;;;0.75;;
42140;SDS011;27809;51.864;5.646;2022-09-13T16:18:42;10.55;;;4.60;;
42140;SDS011;27809;51.864;5.646;2022-09-13T16:21:07;888.97;;;385.55;;
42140;SDS011;27809;51.864;5.646;2022-09-13T16:23:33;745.00;;;339.33;;
42140;SDS011;27809;51.864;5.646;2022-09-13T16:25:58;465.60;;;184.98;;
42140;SDS011;27809;51.864;5.646;2022-09-13T16:28:24;291.38;;;108.25;;
42140;SDS011;27809;51.864;5.646;2022-09-13T16:30:51;37.40;;;13.70;;
42140;SDS011;27809;51.864;5.646;2022-09-13T16:33:17;104.50;;;36.15;;
42140;SDS011;27809;51.864;5.646;2022-09-13T16:35:44;160.07;;;51.35;;
42140;SDS011;27809;51.864;5.646;2022-09-13T16:38:09;170.35;;;50.55;;
42140;SDS011;27809;51.864;5.646;2022-09-13T16:40:37;174.43;;;54.83;;
42140;SDS011;27809;51.864;5.646;2022-09-13T16:43:07;137.73;;;45.85;;
42140;SDS011;27809;51.864;5.646;2022-09-13T16:45:33;116.90;;;41.38;;
42140;SDS011;27809;51.864;5.646;2022-09-13T16:48:02;112.10;;;38.80;;
42140;SDS011;27809;51.864;5.646;2022-09-13T16:50:28;104.57;;;37.30;;
42140;SDS011;27809;51.864;5.646;2022-09-13T16:52:53;88.13;;;32.63;;
42140;SDS011;27809;51.864;5.646;2022-09-13T16:55:19;70.65;;;26.55;;
42140;SDS011;27809;51.864;5.646;2022-09-13T16:57:44;72.05;;;23.40;;
42140;SDS011;27809;51.864;5.646;2022-09-13T17:00:12;64.47;;;20.23;;
42140;SDS011;27809;51.864;5.646;2022-09-13T17:02:38;63.20;;;18.50;;
42140;SDS011;27809;51.864;5.646;2022-09-13T17:05:04;50.38;;;16.52;;
42140;SDS011;27809;51.864;5.646;2022-09-13T17:07:31;53.88;;;17.63;;
42140;SDS011;27809;51.864;5.646;2022-09-13T17:09:57;46.13;;;14.60;;
42140;SDS011;27809;51.864;5.646;2022-09-13T17:12:23;40.05;;;11.45;;
42140;SDS011;27809;51.864;5.646;2022-09-13T17:14:49;4.10;;;0.63;;
42140;SDS011;27809;51.864;5.646;2022-09-13T17:17:15;1.60;;;0.20;;
42140;SDS011;27809;51.864;5.646;2022-09-13T17:19:41;4.40;;;0.20;;
42140;SDS011;27809;51.864;5.646;2022-09-13T17:22:08;7.80;;;0.98;;
42140;SDS011;27809;51.864;5.646;2022-09-13T17:24:35;6.68;;;0.22;;
42140;SDS011;27809;51.864;5.646;2022-09-13T17:27:01;1.13;;;0.20;;
42140;SDS011;27809;51.864;5.646;2022-09-13T17:29:30;3.75;;;0.70;;
42140;SDS011;27809;51.864;5.646;2022-09-13T17:31:57;2.22;;;0.10;;
42140;SDS011;27809;51.864;5.646;2022-09-13T17:34:23;8.98;;;0.50;;
42140;SDS011;27809;51.864;5.646;2022-09-13T17:36:49;4.88;;;0.95;;
42140;SDS011;27809;51.864;5.646;2022-09-13T17:39:14;2.92;;;0.20;;
42140;SDS011;27809;51.864;5.646;2022-09-13T17:41:40;8.90;;;0.90;;
42140;SDS011;27809;51.864;5.646;2022-09-13T17:44:05;2.60;;;0.10;;
42140;SDS011;27809;51.864;5.646;2022-09-13T17:46:31;9.68;;;1.23;;
42140;SDS011;27809;51.864;5.646;2022-09-13T17:48:57;5.47;;;0.88;;
42140;SDS011;27809;51.864;5.646;2022-09-13T17:51:24;7.65;;;0.77;;
42140;SDS011;27809;51.864;5.646;2022-09-13T17:53:55;5.55;;;0.57;;
42140;SDS011;27809;51.864;5.646;2022-09-13T17:56:26;5.78;;;0.73;;
42140;SDS011;27809;51.864;5.646;2022-09-13T17:59:03;2.80;;;0.45;;